Airfield :
LOGIN :

Register | Disclaimer

   EN    FR    IT 

 










Legend :    VFR   Marginal VFR   IFR   Intensive IFR   Very Intensive IFR
Visi :
Ceiling :
>= 8 km
>= 3000ft
5 to 8 km
1000 to 3000 ft
1500m to 5 km
500 to 1000 ft
800 to 1500m
200 to 500 ft
< 800m
< 200 ft
Symbols :   Thunderstorms  Fog  Heavy snow  Heavy precipitations  Wind > 20 kt
SIGMETs :     Misc.  Thunderstorms  Icing  Turbulence  Mountain Waves  Volcanic Ashes






- Airport Elevation : 74 ft
- IATA code : MRS


LFML - Marseille / Marignane

CURRENT METAR :
  • 180600Z AUTO 12011KT CAVOK 27/16 Q1014 TEMPO 16015G25KT

EXPIRED METARs :
  • 180530Z AUTO 12013KT CAVOK 26/16 Q1013 TEMPO 16015G25KT
  • 180500Z AUTO 11012KT 9999 FEW011 26/15 Q1013 TEMPO 16015G25KT
  • 180430Z AUTO 06006KT CAVOK 24/14 Q1013 TEMPO 16015G25KT
  • 180400Z AUTO 07007KT CAVOK 24/13 Q1013 NOSIG
  • 180330Z AUTO 06007KT CAVOK 24/13 Q1013 BECMG 12012KT

TAF TAF LFML
Valid from the 18 at 03:00 until the 19 at 09:00 UTC


180200Z 1803/1909 12012KT CAVOK TX31/1814Z TN23/1803Z
TEMPO 1806/1812 16015G25KT
BECMG 1812/1813 18015KT
BECMG 1820/1822 VRB02KT
TEMPO 1822/1902 BKN010
ATIS : +33 4 42 31 15 15



MET'MAP, your aeronautical weather chart ! - Copyright ORBIFLY December 2007 - Disclaimer

ORBIFLY MET'MAP TEAM :

Programming & Development : Alexandra Zaïnal
Concept & original design : Baudouin d'Aumeries
Assistance for programming : Marc-Olivier Méhu
Technical & hardware support : Manuel Goepfert

Contact : metmap@orbifly.com




SOURCES & CREDITS :

   NOAA